sensor_id;sensor_type;location;lat;lon;timestamp;temperature;humidity
67899;DHT22;54699;51.796;10.956;2022-10-31T00:01:41;22.70;55.70
67899;DHT22;54699;51.796;10.956;2022-10-31T00:04:07;22.60;55.70
67899;DHT22;54699;51.796;10.956;2022-10-31T00:06:34;22.70;55.80
67899;DHT22;54699;51.796;10.956;2022-10-31T00:09:02;22.70;55.70
67899;DHT22;54699;51.796;10.956;2022-10-31T00:11:30;22.70;55.70
67899;DHT22;54699;51.796;10.956;2022-10-31T00:13:57;22.70;55.70
67899;DHT22;54699;51.796;10.956;2022-10-31T00:16:25;22.70;55.70
67899;DHT22;54699;51.796;10.956;2022-10-31T00:18:55;22.70;55.70
67899;DHT22;54699;51.796;10.956;2022-10-31T00:21:23;22.70;55.70
67899;DHT22;54699;51.796;10.956;2022-10-31T00:23:50;22.70;55.70
67899;DHT22;54699;51.796;10.956;2022-10-31T00:26:18;22.60;55.70
67899;DHT22;54699;51.796;10.956;2022-10-31T00:28:45;22.60;55.70
67899;DHT22;54699;51.796;10.956;2022-10-31T00:31:12;22.60;55.70
67899;DHT22;54699;51.796;10.956;2022-10-31T00:33:40;22.70;55.70
67899;DHT22;54699;51.796;10.956;2022-10-31T00:36:10;22.60;55.80
67899;DHT22;54699;51.796;10.956;2022-10-31T00:38:38;22.60;55.80
67899;DHT22;54699;51.796;10.956;2022-10-31T00:41:05;22.60;55.70
67899;DHT22;54699;51.796;10.956;2022-10-31T00:43:32;22.70;55.80
67899;DHT22;54699;51.796;10.956;2022-10-31T00:45:59;22.60;55.80
67899;DHT22;54699;51.796;10.956;2022-10-31T00:48:25;22.70;55.80
67899;DHT22;54699;51.796;10.956;2022-10-31T00:50:52;22.70;55.80
67899;DHT22;54699;51.796;10.956;2022-10-31T00:53:20;22.70;55.80
67899;DHT22;54699;51.796;10.956;2022-10-31T00:55:47;22.60;55.80
67899;DHT22;54699;51.796;10.956;2022-10-31T00:58:14;22.60;55.80
67899;DHT22;54699;51.796;10.956;2022-10-31T01:00:41;22.60;55.80
67899;DHT22;54699;51.796;10.956;2022-10-31T01:03:07;22.60;55.80
67899;DHT22;54699;51.796;10.956;2022-10-31T01:05:34;22.60;55.80
67899;DHT22;54699;51.796;10.956;2022-10-31T01:08:01;22.60;55.70
67899;DHT22;54699;51.796;10.956;2022-10-31T01:10:29;22.60;55.80
67899;DHT22;54699;51.796;10.956;2022-10-31T01:12:56;22.60;55.90
67899;DHT22;54699;51.796;10.956;2022-10-31T01:15:23;22.60;56.00
67899;DHT22;54699;51.796;10.956;2022-10-31T01:17:49;22.60;55.90
67899;DHT22;54699;51.796;10.956;2022-10-31T01:20:16;22.60;55.90
67899;DHT22;54699;51.796;10.956;2022-10-31T01:22:43;22.60;55.90
67899;DHT22;54699;51.796;10.956;2022-10-31T01:25:10;22.60;56.00
67899;DHT22;54699;51.796;10.956;2022-10-31T01:27:38;22.60;56.00
67899;DHT22;54699;51.796;10.956;2022-10-31T01:30:05;22.60;56.00
67899;DHT22;54699;51.796;10.956;2022-10-31T01:32:33;22.60;56.00
67899;DHT22;54699;51.796;10.956;2022-10-31T01:35:00;22.60;56.00
67899;DHT22;54699;51.796;10.956;2022-10-31T01:37:26;22.60;56.00
67899;DHT22;54699;51.796;10.956;2022-10-31T01:39:53;22.60;56.00
67899;DHT22;54699;51.796;10.956;2022-10-31T01:42:21;22.60;56.00
67899;DHT22;54699;51.796;10.956;2022-10-31T01:44:58;22.60;56.00
67899;DHT22;54699;51.796;10.956;2022-10-31T01:47:31;22.60;56.00
67899;DHT22;54699;51.796;10.956;2022-10-31T01:50:03;22.60;56.00
67899;DHT22;54699;51.796;10.956;2022-10-31T01:52:33;22.50;56.00
67899;DHT22;54699;51.796;10.956;2022-10-31T01:55:05;22.60;56.10
67899;DHT22;54699;51.796;10.956;2022-10-31T01:57:35;22.50;56.00
67899;DHT22;54699;51.796;10.956;2022-10-31T02:00:08;22.50;56.00
67899;DHT22;54699;51.796;10.956;2022-10-31T02:02:36;22.50;56.00
67899;DHT22;54699;51.796;10.956;2022-10-31T02:05:04;22.50;56.00
67899;DHT22;54699;51.796;10.956;2022-10-31T02:07:34;22.50;56.10
67899;DHT22;54699;51.796;10.956;2022-10-31T02:10:06;22.50;56.00
67899;DHT22;54699;51.796;10.956;2022-10-31T02:12:33;22.50;56.10
67899;DHT22;54699;51.796;10.956;2022-10-31T02:15:02;22.50;56.20
67899;DHT22;54699;51.796;10.956;2022-10-31T02:17:32;22.50;56.20
67899;DHT22;54699;51.796;10.956;2022-10-31T02:20:01;22.50;56.10
67899;DHT22;54699;51.796;10.956;2022-10-31T02:22:40;22.50;56.20
67899;DHT22;54699;51.796;10.956;2022-10-31T02:25:21;22.50;56.10
67899;DHT22;54699;51.796;10.956;2022-10-31T02:28:12;22.50;56.20
67899;DHT22;54699;51.796;10.956;2022-10-31T02:30:57;22.50;56.20
67899;DHT22;54699;51.796;10.956;2022-10-31T02:33:30;22.50;56.20
67899;DHT22;54699;51.796;10.956;2022-10-31T02:36:03;22.50;56.20
67899;DHT22;54699;51.796;10.956;2022-10-31T02:38:39;22.50;56.20
67899;DHT22;54699;51.796;10.956;2022-10-31T02:41:15;22.50;56.20
67899;DHT22;54699;51.796;10.956;2022-10-31T02:43:48;22.50;56.20
67899;DHT22;54699;51.796;10.956;2022-10-31T02:46:27;22.50;56.20
67899;DHT22;54699;51.796;10.956;2022-10-31T02:48:59;22.50;56.30
67899;DHT22;54699;51.796;10.956;2022-10-31T02:51:32;22.50;56.20
67899;DHT22;54699;51.796;10.956;2022-10-31T02:53:59;22.50;56.20
67899;DHT22;54699;51.796;10.956;2022-10-31T02:56:26;22.50;56.30
67899;DHT22;54699;51.796;10.956;2022-10-31T02:58:53;22.50;56.30
67899;DHT22;54699;51.796;10.956;2022-10-31T03:01:30;22.50;56.30
67899;DHT22;54699;51.796;10.956;2022-10-31T03:06:59;22.50;56.30
67899;DHT22;54699;51.796;10.956;2022-10-31T03:09:32;22.40;56.40
67899;DHT22;54699;51.796;10.956;2022-10-31T03:12:07;22.40;56.40
67899;DHT22;54699;51.796;10.956;2022-10-31T03:14:38;22.40;56.30
67899;DHT22;54699;51.796;10.956;2022-10-31T03:17:10;22.40;56.30
67899;DHT22;54699;51.796;10.956;2022-10-31T03:19:42;22.40;56.40
67899;DHT22;54699;51.796;10.956;2022-10-31T03:22:15;22.40;56.40
67899;DHT22;54699;51.796;10.956;2022-10-31T03:24:43;22.40;56.40
67899;DHT22;54699;51.796;10.956;2022-10-31T03:27:13;22.40;56.40
67899;DHT22;54699;51.796;10.956;2022-10-31T03:29:44;22.40;56.40
67899;DHT22;54699;51.796;10.956;2022-10-31T03:32:16;22.40;56.40
67899;DHT22;54699;51.796;10.956;2022-10-31T03:34:46;22.40;56.50
67899;DHT22;54699;51.796;10.956;2022-10-31T03:37:16;22.40;56.50
67899;DHT22;54699;51.796;10.956;2022-10-31T03:39:47;22.40;56.50
67899;DHT22;54699;51.796;10.956;2022-10-31T03:42:16;22.40;56.50
67899;DHT22;54699;51.796;10.956;2022-10-31T03:44:48;22.40;56.50
67899;DHT22;54699;51.796;10.956;2022-10-31T03:47:21;22.40;56.60
67899;DHT22;54699;51.796;10.956;2022-10-31T03:49:48;22.40;56.50
67899;DHT22;54699;51.796;10.956;2022-10-31T03:52:17;22.40;56.50
67899;DHT22;54699;51.796;10.956;2022-10-31T03:54:51;22.40;56.50
67899;DHT22;54699;51.796;10.956;2022-10-31T03:57:21;22.30;56.50
67899;DHT22;54699;51.796;10.956;2022-10-31T03:59:53;22.40;56.60
67899;DHT22;54699;51.796;10.956;2022-10-31T04:02:27;22.40;56.50
67899;DHT22;54699;51.796;10.956;2022-10-31T04:04:57;22.30;56.50
67899;DHT22;54699;51.796;10.956;2022-10-31T04:07:25;22.30;56.40
67899;DHT22;54699;51.796;10.956;2022-10-31T04:09:54;22.30;56.60
67899;DHT22;54699;51.796;10.956;2022-10-31T04:12:23;22.30;56.40
67899;DHT22;54699;51.796;10.956;2022-10-31T04:14:52;22.30;56.40
67899;DHT22;54699;51.796;10.956;2022-10-31T04:17:21;22.30;56.40
67899;DHT22;54699;51.796;10.956;2022-10-31T04:19:54;22.30;56.40
67899;DHT22;54699;51.796;10.956;2022-10-31T04:22:21;22.30;56.40
67899;DHT22;54699;51.796;10.956;2022-10-31T04:24:48;22.30;56.40
67899;DHT22;54699;51.796;10.956;2022-10-31T04:27:14;22.30;56.40
67899;DHT22;54699;51.796;10.956;2022-10-31T04:29:41;22.30;56.40
67899;DHT22;54699;51.796;10.956;2022-10-31T04:32:08;22.30;56.40
67899;DHT22;54699;51.796;10.956;2022-10-31T04:34:35;22.30;56.40
67899;DHT22;54699;51.796;10.956;2022-10-31T04:37:03;22.30;56.40
67899;DHT22;54699;51.796;10.956;2022-10-31T04:39:29;22.30;56.40
67899;DHT22;54699;51.796;10.956;2022-10-31T04:41:56;22.30;56.30
67899;DHT22;54699;51.796;10.956;2022-10-31T04:44:23;22.30;56.40
67899;DHT22;54699;51.796;10.956;2022-10-31T04:46:50;22.30;56.40
67899;DHT22;54699;51.796;10.956;2022-10-31T04:49:16;22.20;56.30
67899;DHT22;54699;51.796;10.956;2022-10-31T04:51:43;22.30;56.40
67899;DHT22;54699;51.796;10.956;2022-10-31T04:54:11;22.30;56.40
67899;DHT22;54699;51.796;10.956;2022-10-31T04:56:38;22.30;56.30
67899;DHT22;54699;51.796;10.956;2022-10-31T04:59:05;22.30;56.30
67899;DHT22;54699;51.796;10.956;2022-10-31T05:01:31;22.30;56.20
67899;DHT22;54699;51.796;10.956;2022-10-31T05:03:58;22.30;56.10
67899;DHT22;54699;51.796;10.956;2022-10-31T05:06:25;22.40;56.00
67899;DHT22;54699;51.796;10.956;2022-10-31T05:08:51;22.40;55.90
67899;DHT22;54699;51.796;10.956;2022-10-31T05:11:20;22.40;55.90
67899;DHT22;54699;51.796;10.956;2022-10-31T05:13:46;22.50;55.70
67899;DHT22;54699;51.796;10.956;2022-10-31T05:16:13;22.50;55.60
67899;DHT22;54699;51.796;10.956;2022-10-31T05:18:40;22.50;55.50
67899;DHT22;54699;51.796;10.956;2022-10-31T05:21:06;22.50;55.40
67899;DHT22;54699;51.796;10.956;2022-10-31T05:23:33;22.60;55.40
67899;DHT22;54699;51.796;10.956;2022-10-31T05:26:00;22.60;55.40
67899;DHT22;54699;51.796;10.956;2022-10-31T05:28:28;22.60;55.20
67899;DHT22;54699;51.796;10.956;2022-10-31T05:30:54;22.60;55.20
67899;DHT22;54699;51.796;10.956;2022-10-31T05:33:21;22.60;55.10
67899;DHT22;54699;51.796;10.956;2022-10-31T05:35:48;22.60;54.90
67899;DHT22;54699;51.796;10.956;2022-10-31T05:38:15;22.70;54.90
67899;DHT22;54699;51.796;10.956;2022-10-31T05:40:41;22.70;54.90
67899;DHT22;54699;51.796;10.956;2022-10-31T05:43:08;22.70;54.90
67899;DHT22;54699;51.796;10.956;2022-10-31T05:45:36;22.70;54.90
67899;DHT22;54699;51.796;10.956;2022-10-31T05:48:03;22.70;54.80
67899;DHT22;54699;51.796;10.956;2022-10-31T05:50:31;22.70;54.60
67899;DHT22;54699;51.796;10.956;2022-10-31T05:52:58;22.80;54.70
67899;DHT22;54699;51.796;10.956;2022-10-31T05:55:26;22.80;54.50
67899;DHT22;54699;51.796;10.956;2022-10-31T05:57:53;22.80;54.40
67899;DHT22;54699;51.796;10.956;2022-10-31T06:00:20;22.80;54.60
67899;DHT22;54699;51.796;10.956;2022-10-31T06:02:49;22.80;54.50
67899;DHT22;54699;51.796;10.956;2022-10-31T06:05:16;22.80;54.40
67899;DHT22;54699;51.796;10.956;2022-10-31T06:07:42;22.80;54.40
67899;DHT22;54699;51.796;10.956;2022-10-31T06:10:09;22.80;54.30
67899;DHT22;54699;51.796;10.956;2022-10-31T06:12:36;22.80;54.30
67899;DHT22;54699;51.796;10.956;2022-10-31T06:15:04;22.80;54.30
67899;DHT22;54699;51.796;10.956;2022-10-31T06:17:31;22.80;54.40
67899;DHT22;54699;51.796;10.956;2022-10-31T06:20:00;22.80;54.30
67899;DHT22;54699;51.796;10.956;2022-10-31T06:22:27;22.80;54.30
67899;DHT22;54699;51.796;10.956;2022-10-31T06:24:54;22.80;54.30
67899;DHT22;54699;51.796;10.956;2022-10-31T06:27:21;22.80;54.20
67899;DHT22;54699;51.796;10.956;2022-10-31T06:29:48;22.80;54.30
67899;DHT22;54699;51.796;10.956;2022-10-31T06:32:14;22.80;54.30
67899;DHT22;54699;51.796;10.956;2022-10-31T06:34:42;22.80;54.20
67899;DHT22;54699;51.796;10.956;2022-10-31T06:37:11;22.80;54.30
67899;DHT22;54699;51.796;10.956;2022-10-31T06:39:38;22.80;54.30
67899;DHT22;54699;51.796;10.956;2022-10-31T06:42:05;22.80;54.30
67899;DHT22;54699;51.796;10.956;2022-10-31T06:44:32;22.80;54.20
67899;DHT22;54699;51.796;10.956;2022-10-31T06:46:59;22.80;54.20
67899;DHT22;54699;51.796;10.956;2022-10-31T06:49:25;22.80;54.20
67899;DHT22;54699;51.796;10.956;2022-10-31T06:51:52;22.80;54.30
67899;DHT22;54699;51.796;10.956;2022-10-31T06:54:21;22.80;54.20
67899;DHT22;54699;51.796;10.956;2022-10-31T06:56:48;22.80;54.10
67899;DHT22;54699;51.796;10.956;2022-10-31T06:59:15;22.80;54.10
67899;DHT22;54699;51.796;10.956;2022-10-31T07:01:43;22.80;54.20
67899;DHT22;54699;51.796;10.956;2022-10-31T07:04:10;22.80;54.30
67899;DHT22;54699;51.796;10.956;2022-10-31T07:06:37;22.80;54.20
67899;DHT22;54699;51.796;10.956;2022-10-31T07:09:04;22.80;54.20
67899;DHT22;54699;51.796;10.956;2022-10-31T07:11:32;22.80;54.20
67899;DHT22;54699;51.796;10.956;2022-10-31T07:13:59;22.80;54.20
67899;DHT22;54699;51.796;10.956;2022-10-31T07:16:26;22.80;54.10
67899;DHT22;54699;51.796;10.956;2022-10-31T07:18:53;22.80;54.30
67899;DHT22;54699;51.796;10.956;2022-10-31T07:21:20;22.80;54.20
67899;DHT22;54699;51.796;10.956;2022-10-31T07:23:47;22.80;54.20
67899;DHT22;54699;51.796;10.956;2022-10-31T07:26:14;22.80;54.10
67899;DHT22;54699;51.796;10.956;2022-10-31T07:28:43;22.80;54.30
67899;DHT22;54699;51.796;10.956;2022-10-31T07:31:09;22.80;54.40
67899;DHT22;54699;51.796;10.956;2022-10-31T07:33:36;22.80;54.20
67899;DHT22;54699;51.796;10.956;2022-10-31T07:36:03;22.80;54.20
67899;DHT22;54699;51.796;10.956;2022-10-31T07:38:30;22.80;54.30
67899;DHT22;54699;51.796;10.956;2022-10-31T07:40:57;22.80;54.40
67899;DHT22;54699;51.796;10.956;2022-10-31T07:43:24;22.80;54.30
67899;DHT22;54699;51.796;10.956;2022-10-31T07:45:52;22.80;54.30
67899;DHT22;54699;51.796;10.956;2022-10-31T07:48:19;22.90;54.30
67899;DHT22;54699;51.796;10.956;2022-10-31T07:50:46;22.80;54.20
67899;DHT22;54699;51.796;10.956;2022-10-31T07:53:14;22.90;54.30
67899;DHT22;54699;51.796;10.956;2022-10-31T07:55:41;22.80;54.30
67899;DHT22;54699;51.796;10.956;2022-10-31T07:58:09;22.80;54.30
67899;DHT22;54699;51.796;10.956;2022-10-31T08:00:38;22.80;54.40
67899;DHT22;54699;51.796;10.956;2022-10-31T08:03:08;22.80;54.20
67899;DHT22;54699;51.796;10.956;2022-10-31T08:05:36;22.80;54.30
67899;DHT22;54699;51.796;10.956;2022-10-31T08:08:03;22.80;54.30
67899;DHT22;54699;51.796;10.956;2022-10-31T08:10:30;22.80;54.40
67899;DHT22;54699;51.796;10.956;2022-10-31T08:12:58;22.80;54.40
67899;DHT22;54699;51.796;10.956;2022-10-31T08:15:27;22.80;54.30
67899;DHT22;54699;51.796;10.956;2022-10-31T08:17:53;22.80;54.40
67899;DHT22;54699;51.796;10.956;2022-10-31T08:20:22;22.80;54.50
67899;DHT22;54699;51.796;10.956;2022-10-31T08:22:52;22.80;54.60
67899;DHT22;54699;51.796;10.956;2022-10-31T08:25:20;22.80;54.60
67899;DHT22;54699;51.796;10.956;2022-10-31T08:27:48;22.80;54.60
67899;DHT22;54699;51.796;10.956;2022-10-31T08:30:16;22.70;54.60
67899;DHT22;54699;51.796;10.956;2022-10-31T08:32:43;22.80;54.80
67899;DHT22;54699;51.796;10.956;2022-10-31T08:35:10;22.70;54.80
67899;DHT22;54699;51.796;10.956;2022-10-31T08:37:38;22.70;54.90
67899;DHT22;54699;51.796;10.956;2022-10-31T08:40:05;22.80;55.00
67899;DHT22;54699;51.796;10.956;2022-10-31T08:42:32;22.70;55.00
67899;DHT22;54699;51.796;10.956;2022-10-31T08:44:59;22.70;55.00
67899;DHT22;54699;51.796;10.956;2022-10-31T08:47:26;22.70;55.10
67899;DHT22;54699;51.796;10.956;2022-10-31T08:49:54;22.70;55.10
67899;DHT22;54699;51.796;10.956;2022-10-31T08:52:22;22.70;55.10
67899;DHT22;54699;51.796;10.956;2022-10-31T08:54:50;22.80;55.20
67899;DHT22;54699;51.796;10.956;2022-10-31T08:57:17;22.80;55.50
67899;DHT22;54699;51.796;10.956;2022-10-31T08:59:44;22.70;55.50
67899;DHT22;54699;51.796;10.956;2022-10-31T09:02:10;22.80;55.50
67899;DHT22;54699;51.796;10.956;2022-10-31T09:04:37;22.80;55.50
67899;DHT22;54699;51.796;10.956;2022-10-31T09:07:04;22.80;55.40
67899;DHT22;54699;51.796;10.956;2022-10-31T09:09:31;22.90;55.30
67899;DHT22;54699;51.796;10.956;2022-10-31T09:11:59;22.90;55.30
67899;DHT22;54699;51.796;10.956;2022-10-31T09:14:25;23.00;55.00
67899;DHT22;54699;51.796;10.956;2022-10-31T09:16:52;23.00;54.80
67899;DHT22;54699;51.796;10.956;2022-10-31T09:19:19;23.00;54.80
67899;DHT22;54699;51.796;10.956;2022-10-31T09:21:46;23.00;55.10
67899;DHT22;54699;51.796;10.956;2022-10-31T09:24:12;23.00;55.00
67899;DHT22;54699;51.796;10.956;2022-10-31T09:26:39;22.90;54.10
67899;DHT22;54699;51.796;10.956;2022-10-31T09:29:07;22.90;54.00
67899;DHT22;54699;51.796;10.956;2022-10-31T09:31:34;22.90;53.90
67899;DHT22;54699;51.796;10.956;2022-10-31T09:34:01;22.90;53.80
67899;DHT22;54699;51.796;10.956;2022-10-31T09:36:28;22.90;53.60
67899;DHT22;54699;51.796;10.956;2022-10-31T09:38:55;22.90;53.70
67899;DHT22;54699;51.796;10.956;2022-10-31T09:41:23;22.90;53.70
67899;DHT22;54699;51.796;10.956;2022-10-31T09:43:56;22.90;53.50
67899;DHT22;54699;51.796;10.956;2022-10-31T09:46:32;22.90;53.50
67899;DHT22;54699;51.796;10.956;2022-10-31T09:49:16;22.90;53.40
67899;DHT22;54699;51.796;10.956;2022-10-31T09:51:57;23.00;53.30
67899;DHT22;54699;51.796;10.956;2022-10-31T09:54:32;23.00;53.20
67899;DHT22;54699;51.796;10.956;2022-10-31T09:57:04;23.00;53.10
67899;DHT22;54699;51.796;10.956;2022-10-31T09:59:38;23.00;53.10
67899;DHT22;54699;51.796;10.956;2022-10-31T10:02:12;23.00;53.20
67899;DHT22;54699;51.796;10.956;2022-10-31T10:04:44;23.10;53.00
67899;DHT22;54699;51.796;10.956;2022-10-31T10:07:20;23.10;53.00
67899;DHT22;54699;51.796;10.956;2022-10-31T10:09:54;23.20;52.80
67899;DHT22;54699;51.796;10.956;2022-10-31T10:12:23;23.30;52.70
67899;DHT22;54699;51.796;10.956;2022-10-31T10:15:08;23.30;52.50
67899;DHT22;54699;51.796;10.956;2022-10-31T10:17:57;23.40;52.40
67899;DHT22;54699;51.796;10.956;2022-10-31T10:20:30;23.40;52.40
67899;DHT22;54699;51.796;10.956;2022-10-31T10:23:10;23.40;52.30
67899;DHT22;54699;51.796;10.956;2022-10-31T10:25:48;23.40;52.30
67899;DHT22;54699;51.796;10.956;2022-10-31T10:28:23;23.40;52.20
67899;DHT22;54699;51.796;10.956;2022-10-31T10:30:54;23.50;52.10
67899;DHT22;54699;51.796;10.956;2022-10-31T10:33:32;23.50;52.20
67899;DHT22;54699;51.796;10.956;2022-10-31T10:36:03;23.50;52.20
67899;DHT22;54699;51.796;10.956;2022-10-31T10:38:33;23.50;52.30
67899;DHT22;54699;51.796;10.956;2022-10-31T10:41:04;23.50;52.20
67899;DHT22;54699;51.796;10.956;2022-10-31T10:43:33;23.50;52.20
67899;DHT22;54699;51.796;10.956;2022-10-31T10:46:05;23.50;52.30
67899;DHT22;54699;51.796;10.956;2022-10-31T10:49:02;23.60;52.30
67899;DHT22;54699;51.796;10.956;2022-10-31T10:51:37;23.50;52.20
67899;DHT22;54699;51.796;10.956;2022-10-31T10:54:13;23.60;52.10
67899;DHT22;54699;51.796;10.956;2022-10-31T10:56:53;23.60;51.90
67899;DHT22;54699;51.796;10.956;2022-10-31T10:59:26;23.60;52.00
67899;DHT22;54699;51.796;10.956;2022-10-31T11:01:54;23.60;51.90
67899;DHT22;54699;51.796;10.956;2022-10-31T11:04:28;23.50;52.20
67899;DHT22;54699;51.796;10.956;2022-10-31T11:06:58;23.50;52.20
67899;DHT22;54699;51.796;10.956;2022-10-31T11:09:26;23.50;52.30
67899;DHT22;54699;51.796;10.956;2022-10-31T11:11:52;23.40;52.40
67899;DHT22;54699;51.796;10.956;2022-10-31T11:14:20;23.40;52.40
67899;DHT22;54699;51.796;10.956;2022-10-31T11:16:49;23.40;52.50
67899;DHT22;54699;51.796;10.956;2022-10-31T11:19:18;23.40;52.70
67899;DHT22;54699;51.796;10.956;2022-10-31T11:21:49;23.40;52.70
67899;DHT22;54699;51.796;10.956;2022-10-31T11:24:17;23.40;52.50
67899;DHT22;54699;51.796;10.956;2022-10-31T11:26:45;23.40;52.60
67899;DHT22;54699;51.796;10.956;2022-10-31T11:29:14;23.40;52.60
67899;DHT22;54699;51.796;10.956;2022-10-31T11:31:43;23.40;52.70
67899;DHT22;54699;51.796;10.956;2022-10-31T11:34:16;23.40;52.80
67899;DHT22;54699;51.796;10.956;2022-10-31T11:36:54;23.40;52.80
67899;DHT22;54699;51.796;10.956;2022-10-31T11:39:29;23.40;52.60
67899;DHT22;54699;51.796;10.956;2022-10-31T11:41:59;23.40;52.80
67899;DHT22;54699;51.796;10.956;2022-10-31T11:44:29;23.40;52.70
67899;DHT22;54699;51.796;10.956;2022-10-31T11:46:58;23.40;52.80
67899;DHT22;54699;51.796;10.956;2022-10-31T11:49:29;23.40;52.80
67899;DHT22;54699;51.796;10.956;2022-10-31T11:52:00;23.40;52.90
67899;DHT22;54699;51.796;10.956;2022-10-31T11:54:31;23.30;52.90
67899;DHT22;54699;51.796;10.956;2022-10-31T11:57:02;23.40;52.90
67899;DHT22;54699;51.796;10.956;2022-10-31T11:59:29;23.40;52.90
67899;DHT22;54699;51.796;10.956;2022-10-31T12:01:57;23.30;52.90
67899;DHT22;54699;51.796;10.956;2022-10-31T12:04:29;23.40;53.00
67899;DHT22;54699;51.796;10.956;2022-10-31T12:07:05;23.30;53.00
67899;DHT22;54699;51.796;10.956;2022-10-31T12:09:33;23.40;53.10
67899;DHT22;54699;51.796;10.956;2022-10-31T12:14:59;23.30;53.10
67899;DHT22;54699;51.796;10.956;2022-10-31T12:17:48;23.30;53.10
67899;DHT22;54699;51.796;10.956;2022-10-31T12:20:23;23.40;53.20
67899;DHT22;54699;51.796;10.956;2022-10-31T12:23:02;23.30;53.20
67899;DHT22;54699;51.796;10.956;2022-10-31T12:25:36;23.30;53.20
67899;DHT22;54699;51.796;10.956;2022-10-31T12:28:14;23.30;53.20
67899;DHT22;54699;51.796;10.956;2022-10-31T12:31:09;23.30;53.20
67899;DHT22;54699;51.796;10.956;2022-10-31T12:33:47;23.40;53.30
67899;DHT22;54699;51.796;10.956;2022-10-31T12:36:29;23.40;53.30
67899;DHT22;54699;51.796;10.956;2022-10-31T12:39:13;23.30;53.20
67899;DHT22;54699;51.796;10.956;2022-10-31T12:41:51;23.40;53.20
67899;DHT22;54699;51.796;10.956;2022-10-31T12:44:26;23.40;53.30
67899;DHT22;54699;51.796;10.956;2022-10-31T12:47:04;23.40;53.30
67899;DHT22;54699;51.796;10.956;2022-10-31T12:49:49;23.40;53.30
67899;DHT22;54699;51.796;10.956;2022-10-31T12:52:27;23.40;54.20
67899;DHT22;54699;51.796;10.956;2022-10-31T12:55:14;23.30;53.20
67899;DHT22;54699;51.796;10.956;2022-10-31T12:57:52;23.40;53.30
67899;DHT22;54699;51.796;10.956;2022-10-31T13:00:24;23.40;53.30
67899;DHT22;54699;51.796;10.956;2022-10-31T13:02:54;23.40;53.30
67899;DHT22;54699;51.796;10.956;2022-10-31T13:05:26;23.40;53.30
67899;DHT22;54699;51.796;10.956;2022-10-31T13:07:57;23.40;53.30
67899;DHT22;54699;51.796;10.956;2022-10-31T13:10:30;23.30;53.30
67899;DHT22;54699;51.796;10.956;2022-10-31T13:13:02;23.40;53.30
67899;DHT22;54699;51.796;10.956;2022-10-31T13:15:34;23.30;53.30
67899;DHT22;54699;51.796;10.956;2022-10-31T13:18:14;23.30;53.30
67899;DHT22;54699;51.796;10.956;2022-10-31T13:20:49;23.30;53.20
67899;DHT22;54699;51.796;10.956;2022-10-31T13:23:19;23.40;53.30
67899;DHT22;54699;51.796;10.956;2022-10-31T13:25:54;23.30;53.20
67899;DHT22;54699;51.796;10.956;2022-10-31T13:28:25;23.40;53.30
67899;DHT22;54699;51.796;10.956;2022-10-31T13:30:56;23.30;53.20
67899;DHT22;54699;51.796;10.956;2022-10-31T13:33:23;23.40;53.30
67899;DHT22;54699;51.796;10.956;2022-10-31T13:35:55;23.40;53.30
67899;DHT22;54699;51.796;10.956;2022-10-31T13:38:35;23.40;53.20
67899;DHT22;54699;51.796;10.956;2022-10-31T13:41:10;23.40;53.20
67899;DHT22;54699;51.796;10.956;2022-10-31T13:46:34;23.40;53.40
67899;DHT22;54699;51.796;10.956;2022-10-31T13:49:02;23.40;53.20
67899;DHT22;54699;51.796;10.956;2022-10-31T13:51:29;23.40;53.20
67899;DHT22;54699;51.796;10.956;2022-10-31T13:53:59;23.30;53.30
67899;DHT22;54699;51.796;10.956;2022-10-31T13:56:33;23.30;53.30
67899;DHT22;54699;51.796;10.956;2022-10-31T13:59:02;23.30;53.20
67899;DHT22;54699;51.796;10.956;2022-10-31T14:01:45;23.40;53.40
67899;DHT22;54699;51.796;10.956;2022-10-31T14:04:14;23.40;53.30
67899;DHT22;54699;51.796;10.956;2022-10-31T14:06:45;23.30;53.30
67899;DHT22;54699;51.796;10.956;2022-10-31T14:09:20;23.30;53.50
67899;DHT22;54699;51.796;10.956;2022-10-31T14:11:51;23.20;53.60
67899;DHT22;54699;51.796;10.956;2022-10-31T14:14:19;23.20;53.70
67899;DHT22;54699;51.796;10.956;2022-10-31T14:16:52;23.20;53.70
67899;DHT22;54699;51.796;10.956;2022-10-31T14:19:21;23.20;53.70
67899;DHT22;54699;51.796;10.956;2022-10-31T14:21:49;23.20;53.80
67899;DHT22;54699;51.796;10.956;2022-10-31T14:24:30;23.20;53.80
67899;DHT22;54699;51.796;10.956;2022-10-31T14:27:01;23.20;53.80
67899;DHT22;54699;51.796;10.956;2022-10-31T14:29:30;23.20;53.80
67899;DHT22;54699;51.796;10.956;2022-10-31T14:32:03;23.10;53.90
67899;DHT22;54699;51.796;10.956;2022-10-31T14:34:38;23.10;53.80
67899;DHT22;54699;51.796;10.956;2022-10-31T14:37:28;23.10;53.80
67899;DHT22;54699;51.796;10.956;2022-10-31T14:40:18;23.10;53.90
67899;DHT22;54699;51.796;10.956;2022-10-31T14:42:58;23.10;54.10
67899;DHT22;54699;51.796;10.956;2022-10-31T14:45:41;23.00;54.10
67899;DHT22;54699;51.796;10.956;2022-10-31T14:48:24;23.00;54.00
67899;DHT22;54699;51.796;10.956;2022-10-31T14:51:00;23.10;54.20
67899;DHT22;54699;51.796;10.956;2022-10-31T14:53:30;23.00;54.10
67899;DHT22;54699;51.796;10.956;2022-10-31T14:55:59;23.00;54.40
67899;DHT22;54699;51.796;10.956;2022-10-31T14:58:30;23.00;54.20
67899;DHT22;54699;51.796;10.956;2022-10-31T15:01:01;23.00;54.30
67899;DHT22;54699;51.796;10.956;2022-10-31T15:03:29;23.00;54.40
67899;DHT22;54699;51.796;10.956;2022-10-31T15:06:00;23.00;54.40
67899;DHT22;54699;51.796;10.956;2022-10-31T15:08:31;23.00;54.50
67899;DHT22;54699;51.796;10.956;2022-10-31T15:11:09;23.00;54.60
67899;DHT22;54699;51.796;10.956;2022-10-31T15:13:42;23.00;54.40
67899;DHT22;54699;51.796;10.956;2022-10-31T15:16:10;23.00;54.40
67899;DHT22;54699;51.796;10.956;2022-10-31T15:18:46;22.90;54.40
67899;DHT22;54699;51.796;10.956;2022-10-31T15:21:15;22.90;54.60
67899;DHT22;54699;51.796;10.956;2022-10-31T15:23:44;22.90;54.40
67899;DHT22;54699;51.796;10.956;2022-10-31T15:26:11;22.90;54.90
67899;DHT22;54699;51.796;10.956;2022-10-31T15:28:45;22.90;54.60
67899;DHT22;54699;51.796;10.956;2022-10-31T15:31:13;22.90;54.40
67899;DHT22;54699;51.796;10.956;2022-10-31T15:33:42;22.90;54.50
67899;DHT22;54699;51.796;10.956;2022-10-31T15:36:19;22.90;54.60
67899;DHT22;54699;51.796;10.956;2022-10-31T15:38:47;22.90;54.40
67899;DHT22;54699;51.796;10.956;2022-10-31T15:41:19;22.90;54.80
67899;DHT22;54699;51.796;10.956;2022-10-31T15:43:52;22.90;55.00